Time;durP1;ratioP1;P1;durP2;ratioP2;P2;SDS_P1;SDS_P2;PMS_P1;PMS_P2;Temp;Humidity;BMP_temperature;BMP_pressure;BME280_temperature;BME280_humidity;BME280_pressure;Samples;Min_cycle;Max_cycle;Signal;HPM_P1;HPM_P2
2023/03/21 00:00:55;;;;;;;26.02;15.68;;;;;;;-145.50;100.00;65435.88;4906095;29;20060;-70
2023/03/21 00:03:22;;;;;;;29.88;16.45;;;;;;;-145.50;100.00;65435.88;4904597;29;20707;-70
2023/03/21 00:05:52;;;;;;;22.90;16.43;;;;;;;-145.50;100.00;65435.88;4924597;29;20083;-70
2023/03/21 00:08:20;;;;;;;25.08;17.30;;;;;;;-145.50;100.00;65435.88;4908984;29;20523;-69
2023/03/21 00:10:47;;;;;;;26.30;16.90;;;;;;;-145.50;100.00;65435.88;4910368;29;20135;-70
2023/03/21 00:13:14;;;;;;;28.98;16.88;;;;;;;-145.50;100.00;65435.88;4922915;29;20059;-69
2023/03/21 00:15:53;;;;;;;27.98;16.88;;;;;;;-145.50;100.00;65435.88;4900937;29;20064;-69
2023/03/21 00:18:40;;;;;;;28.52;17.92;;;;;;;-145.50;100.00;65435.88;4910865;29;20071;-70
2023/03/21 00:21:10;;;;;;;30.33;17.08;;;;;;;-145.50;100.00;65435.88;4907091;29;20493;-69
2023/03/21 00:23:58;;;;;;;23.45;15.20;;;;;;;-145.50;100.00;65435.88;4911371;29;20056;-68
2023/03/21 00:26:25;;;;;;;24.30;16.75;;;;;;;-145.50;100.00;65435.88;4909733;29;20056;-70
2023/03/21 00:28:52;;;;;;;24.58;15.98;;;;;;;-145.50;100.00;65435.88;4915001;29;20433;-69
2023/03/21 00:31:18;;;;;;;32.13;17.60;;;;;;;-145.50;100.00;65435.88;4912451;29;20052;-69
2023/03/21 00:33:45;;;;;;;26.27;15.65;;;;;;;-145.50;100.00;65435.88;4905742;29;20108;-69
2023/03/21 00:36:12;;;;;;;24.98;15.75;;;;;;;-145.50;100.00;65435.88;4912534;29;20115;-69
2023/03/21 00:38:39;;;;;;;25.17;15.13;;;;;;;-145.50;100.00;65435.88;4906091;29;20060;-68
2023/03/21 00:41:08;;;;;;;23.73;15.93;;;;;;;-145.50;100.00;65435.88;4908076;29;20532;-68
2023/03/21 00:43:54;;;;;;;22.58;14.73;;;;;;;-145.50;100.00;65435.88;4907254;29;20488;-68
2023/03/21 00:46:20;;;;;;;25.17;15.95;;;;;;;-145.50;100.00;65435.88;4908922;29;20602;-69
2023/03/21 00:48:50;;;;;;;21.63;14.15;;;;;;;-145.50;100.00;65435.88;4911439;29;20522;-69
2023/03/21 00:51:25;;;;;;;26.77;14.68;;;;;;;-145.50;100.00;65435.88;4905905;29;20756;-69
2023/03/21 00:53:54;;;;;;;21.25;14.43;;;;;;;-145.50;100.00;65435.88;4921552;29;20120;-69
2023/03/21 00:56:21;;;;;;;23.25;14.23;;;;;;;-145.50;100.00;65435.88;4901066;29;21405;-69
2023/03/21 00:58:47;;;;;;;20.67;13.45;;;;;;;-145.50;100.00;65435.88;4920993;29;20072;-69
2023/03/21 01:01:14;;;;;;;22.33;14.70;;;;;;;-145.50;100.00;65435.88;4903178;29;20056;-69
2023/03/21 01:03:46;;;;;;;28.73;15.65;;;;;;;-145.50;100.00;65435.88;4911458;29;20052;-69
2023/03/21 01:06:13;;;;;;;23.35;13.73;;;;;;;-145.50;100.00;65435.88;4911493;29;20052;-69
2023/03/21 01:08:42;;;;;;;22.45;15.60;;;;;;;-145.50;100.00;65435.88;4899864;29;20047;-72
2023/03/21 01:11:22;;;;;;;19.40;13.68;;;;;;;-145.50;100.00;65435.88;4909078;29;20095;-69
2023/03/21 01:13:49;;;;;;;22.15;14.10;;;;;;;-145.50;100.00;65435.88;4902754;29;20063;-69
2023/03/21 01:16:36;;;;;;;19.58;13.65;;;;;;;-145.50;100.00;65435.88;4911058;29;20048;-71
2023/03/21 01:19:06;;;;;;;20.80;14.05;;;;;;;-145.50;100.00;65435.88;4905128;29;20958;-70
2023/03/21 01:21:47;;;;;;;24.05;14.07;;;;;;;-145.50;100.00;65435.88;4905824;29;20139;-69
2023/03/21 01:24:14;;;;;;;27.48;15.35;;;;;;;-145.50;100.00;65435.88;4900675;29;20054;-70
2023/03/21 01:26:41;;;;;;;23.17;13.70;;;;;;;-145.50;100.00;65435.88;4908817;29;20062;-69
2023/03/21 01:29:07;;;;;;;20.70;13.45;;;;;;;-145.50;100.00;65435.88;4918534;29;20654;-71
2023/03/21 01:31:33;;;;;;;20.40;13.65;;;;;;;-145.50;100.00;65435.88;4915729;29;20696;-71
2023/03/21 01:34:00;;;;;;;20.55;12.30;;;;;;;-145.50;100.00;65435.88;4905664;29;20175;-70
2023/03/21 01:36:27;;;;;;;23.42;13.38;;;;;;;-145.50;100.00;65435.88;4899365;29;20052;-69
2023/03/21 01:38:54;;;;;;;19.27;12.93;;;;;;;-145.50;100.00;65435.88;4905893;29;20052;-69
2023/03/21 01:41:30;;;;;;;23.48;13.48;;;;;;;-145.50;100.00;65435.88;4904984;29;20051;-70
2023/03/21 01:44:17;;;;;;;19.27;12.93;;;;;;;-145.50;100.00;65435.88;4910670;29;20462;-71
2023/03/21 01:46:48;;;;;;;21.88;12.88;;;;;;;-145.50;100.00;65435.88;4907792;29;20732;-71
2023/03/21 01:49:39;;;;;;;19.08;12.00;;;;;;;-145.50;100.00;65435.88;4904657;29;20424;-72
2023/03/21 01:52:10;;;;;;;20.65;12.88;;;;;;;-145.50;100.00;65435.88;4906086;29;20052;-72
2023/03/21 01:54:51;;;;;;;22.38;13.18;;;;;;;-145.50;100.00;65435.88;4903812;29;20051;-71
2023/03/21 01:57:31;;;;;;;21.63;12.77;;;;;;;-145.50;100.00;65435.88;4911101;29;20131;-70
2023/03/21 02:00:17;;;;;;;25.00;13.48;;;;;;;-145.50;100.00;65435.88;4894382;29;20747;-71
2023/03/21 02:02:54;;;;;;;19.08;12.80;;;;;;;-145.50;100.00;65435.88;4905978;29;20139;-72
2023/03/21 02:05:36;;;;;;;22.80;13.18;;;;;;;-145.50;100.00;65435.88;4897737;29;20497;-72
2023/03/21 02:08:03;;;;;;;18.75;12.98;;;;;;;-145.50;100.00;65435.88;4910986;29;20056;-72
2023/03/21 02:10:31;;;;;;;22.70;14.18;;;;;;;-145.50;100.00;65435.88;4905117;29;20304;-72
2023/03/21 02:13:08;;;;;;;26.15;14.05;;;;;;;-145.50;100.00;65435.88;4910337;29;20109;-72
2023/03/21 02:15:44;;;;;;;22.23;13.32;;;;;;;-145.50;100.00;65435.88;4909242;29;20058;-72
2023/03/21 02:18:37;;;;;;;20.90;13.27;;;;;;;-145.50;100.00;65435.88;4903712;29;20816;-72
2023/03/21 02:21:35;;;;;;;23.35;14.35;;;;;;;-145.50;100.00;65435.88;4907150;29;20510;-72
2023/03/21 02:24:25;;;;;;;22.70;14.67;;;;;;;-145.50;100.00;65435.88;4906266;29;20056;-71
2023/03/21 02:26:59;;;;;;;24.55;15.65;;;;;;;-145.50;100.00;65435.88;4924302;29;20056;-71
2023/03/21 02:29:47;;;;;;;25.20;14.87;;;;;;;-145.50;100.00;65435.88;4896125;29;20064;-71
2023/03/21 02:32:26;;;;;;;24.80;16.92;;;;;;;-145.50;100.00;65435.88;4904990;29;20063;-71
2023/03/21 02:35:03;;;;;;;25.33;15.43;;;;;;;-145.50;100.00;65435.88;4891158;29;20457;-71
2023/03/21 02:37:38;;;;;;;29.80;16.42;;;;;;;-145.50;100.00;65435.88;4911727;29;20143;-71
2023/03/21 02:40:19;;;;;;;28.30;17.02;;;;;;;-145.50;100.00;65435.88;4903824;29;20062;-72
2023/03/21 02:42:58;;;;;;;25.65;16.08;;;;;;;-145.50;100.00;65435.88;4905672;29;20062;-71
2023/03/21 02:45:34;;;;;;;22.65;14.32;;;;;;;-145.50;100.00;65435.88;4898598;29;20062;-72
2023/03/21 02:48:12;;;;;;;22.33;14.18;;;;;;;-145.50;100.00;65435.88;4904811;29;20139;-71
2023/03/21 02:50:57;;;;;;;22.00;14.65;;;;;;;-145.50;100.00;65435.88;4896698;29;20481;-71
2023/03/21 02:53:30;;;;;;;20.85;14.63;;;;;;;-145.50;100.00;65435.88;4908144;29;20421;-71
2023/03/21 02:55:59;;;;;;;23.58;15.50;;;;;;;-145.50;100.00;65435.88;4908575;29;20052;-71
2023/03/21 02:58:26;;;;;;;;;;;;;;;-145.50;100.00;65435.88;4908516;29;20055;-71
2023/03/21 03:00:55;;;;;;;23.13;15.17;;;;;;;-145.50;100.00;65435.88;4903429;29;19973;-71
2023/03/21 03:03:22;;;;;;;31.55;15.65;;;;;;;-145.50;100.00;65435.88;4900086;29;20087;-71
2023/03/21 03:06:02;;;;;;;20.92;13.98;;;;;;;-145.50;100.00;65435.88;4909526;29;20059;-71
2023/03/21 03:08:35;;;;;;;22.85;14.68;;;;;;;-145.50;100.00;65435.88;4903241;29;20557;-71
2023/03/21 03:11:35;;;;;;;21.70;14.13;;;;;;;-145.50;100.00;65435.88;4910019;29;20409;-71
2023/03/21 03:14:29;;;;;;;25.17;15.38;;;;;;;-145.50;100.00;65435.88;4897528;29;20425;-71
2023/03/21 03:17:34;;;;;;;20.25;14.20;;;;;;;-145.50;100.00;65435.88;4905931;29;20052;-71
2023/03/21 03:20:14;;;;;;;20.25;14.85;;;;;;;-145.50;100.00;65435.88;4917573;29;20140;-71
2023/03/21 03:23:02;;;;;;;25.00;15.43;;;;;;;-145.50;100.00;65435.88;4899496;29;20048;-71
2023/03/21 03:25:38;;;;;;;22.90;15.18;;;;;;;-145.50;100.00;65435.88;4903328;29;20044;-69
2023/03/21 03:28:12;;;;;;;25.88;14.68;;;;;;;-145.50;100.00;65435.88;4901943;29;20588;-71
2023/03/21 03:30:39;;;;;;;25.95;15.85;;;;;;;-145.50;100.00;65435.88;4914075;29;20553;-70
2023/03/21 03:33:22;;;;;;;23.23;15.60;;;;;;;-145.50;100.00;65435.88;4910543;29;20056;-70
2023/03/21 03:35:50;;;;;;;21.95;14.32;;;;;;;-145.50;100.00;65435.88;4909205;29;20056;-69
2023/03/21 03:38:34;;;;;;;25.33;13.55;;;;;;;-145.50;100.00;65435.88;4905061;29;20384;-70
2023/03/21 03:41:17;;;;;;;20.70;13.63;;;;;;;-145.50;100.00;65435.88;4907021;29;20075;-69
2023/03/21 03:43:49;;;;;;;23.40;13.48;;;;;;;-145.50;100.00;65435.88;4892261;29;20060;-69
2023/03/21 03:46:24;;;;;;;22.55;12.73;;;;;;;-145.50;100.00;65435.88;4906449;29;20059;-70
2023/03/21 03:49:00;;;;;;;23.48;14.23;;;;;;;-145.50;100.00;65435.88;4901902;29;20048;-69
2023/03/21 03:52:14;;;;;;;25.17;13.30;;;;;;;-145.50;100.00;65435.88;4911894;29;20138;-70
2023/03/21 03:54:47;;;;;;;20.83;11.75;;;;;;;-145.50;100.00;65435.88;4859400;29;20057;-69
2023/03/21 03:57:15;;;;;;;20.42;11.70;;;;;;;-145.50;100.00;65435.88;4865398;29;20076;-68
2023/03/21 03:59:44;;;;;;;22.85;11.30;;;;;;;-145.50;100.00;65435.88;4888329;29;20064;-70
2023/03/21 04:02:12;;;;;;;19.98;10.52;;;;;;;-145.50;100.00;65435.88;4912522;29;20114;-70
2023/03/21 04:04:40;;;;;;;20.88;11.50;;;;;;;-145.50;100.00;65435.88;4911819;29;20063;-69
2023/03/21 04:07:07;;;;;;;;;;;;;;;-145.50;100.00;65435.88;4907072;29;20151;-69
2023/03/21 04:09:34;;;;;;;22.75;10.38;;;;;;;-145.50;100.00;65435.88;4919794;29;19966;-69
2023/03/21 04:12:11;;;;;;;18.90;9.93;;;;;;;-145.50;100.00;65435.88;4901722;29;20056;-70
2023/03/21 04:14:38;;;;;;;18.77;9.73;;;;;;;-145.50;100.00;65435.88;4912175;29;20052;-69
2023/03/21 04:17:13;;;;;;;18.00;10.20;;;;;;;-145.50;100.00;65435.88;4892973;29;20060;-70
2023/03/21 04:19:39;;;;;;;20.63;10.20;;;;;;;-145.50;100.00;65435.88;4912194;29;20048;-69
2023/03/21 04:22:06;;;;;;;24.23;9.90;;;;;;;-145.50;100.00;65435.88;4906648;29;20055;-69
2023/03/21 04:24:33;;;;;;;18.40;10.50;;;;;;;-145.50;100.00;65435.88;4906977;29;20530;-69
2023/03/21 04:26:59;;;;;;;19.33;9.70;;;;;;;-145.50;100.00;65435.88;4907129;29;20056;-69
2023/03/21 04:29:28;;;;;;;15.98;9.45;;;;;;;-145.50;100.00;65435.88;4904104;29;20114;-69
2023/03/21 04:31:55;;;;;;;18.70;9.20;;;;;;;-145.50;100.00;65435.88;4911502;29;20056;-70
2023/03/21 04:34:27;;;;;;;22.00;9.65;;;;;;;-145.50;100.00;65435.88;4904994;29;20060;-69
2023/03/21 04:36:54;;;;;;;14.85;9.48;;;;;;;-145.50;100.00;65435.88;4909413;29;20106;-69
2023/03/21 04:39:21;;;;;;;18.17;9.15;;;;;;;-145.50;100.00;65435.88;4890903;29;20561;-70
2023/03/21 04:41:48;;;;;;;18.33;8.93;;;;;;;-145.50;100.00;65435.88;4910906;29;20135;-69
2023/03/21 04:44:16;;;;;;;16.60;8.68;;;;;;;-145.50;100.00;65435.88;4910297;29;20059;-69
2023/03/21 04:46:42;;;;;;;18.00;9.13;;;;;;;-145.50;100.00;65435.88;4903278;29;20056;-70
2023/03/21 04:49:09;;;;;;;19.02;8.60;;;;;;;-145.50;100.00;65435.88;4911873;29;20060;-68
2023/03/21 04:51:36;;;;;;;19.02;10.07;;;;;;;-145.50;100.00;65435.88;4902894;29;20050;-68
2023/03/21 04:54:02;;;;;;;19.02;8.15;;;;;;;-145.50;100.00;65435.88;4904912;29;20553;-68
2023/03/21 04:56:31;;;;;;;13.30;7.20;;;;;;;-145.50;100.00;65435.88;4898761;29;20044;-68
2023/03/21 04:58:59;;;;;;;15.57;8.88;;;;;;;-145.50;100.00;65435.88;4911046;29;20071;-68
2023/03/21 05:01:29;;;;;;;14.02;7.38;;;;;;;-145.50;100.00;65435.88;4912236;29;20661;-67
2023/03/21 05:04:00;;;;;;;17.80;9.05;;;;;;;-145.50;100.00;65435.88;4905336;29;20743;-67
2023/03/21 05:06:27;;;;;;;21.95;9.77;;;;;;;-145.50;100.00;65435.88;4908140;29;20060;-68
2023/03/21 05:08:58;;;;;;;17.23;8.52;;;;;;;-145.50;100.00;65435.88;4897986;29;20048;-68
2023/03/21 05:11:26;;;;;;;17.73;9.13;;;;;;;-145.50;100.00;65435.88;4911796;29;20090;-68
2023/03/21 05:13:53;;;;;;;22.85;9.93;;;;;;;-145.50;100.00;65435.88;4902194;29;20060;-69
2023/03/21 05:16:19;;;;;;;18.98;9.15;;;;;;;-145.50;100.00;65435.88;4920448;29;20075;-69
2023/03/21 05:18:49;;;;;;;15.98;9.20;;;;;;;-145.50;100.00;65435.88;4911093;29;20063;-70
2023/03/21 05:21:17;;;;;;;17.23;8.85;;;;;;;-145.50;100.00;65435.88;4898275;29;20416;-69
2023/03/21 05:23:43;;;;;;;17.08;8.65;;;;;;;-145.50;100.00;65435.88;4906933;29;20048;-69
2023/03/21 05:26:10;;;;;;;17.05;9.68;;;;;;;-145.50;100.00;65435.88;4904936;29;20068;-68
2023/03/21 05:28:36;;;;;;;15.48;8.48;;;;;;;-145.50;100.00;65435.88;4922752;29;20446;-69
2023/03/21 05:31:03;;;;;;;17.50;8.65;;;;;;;-145.50;100.00;65435.88;4912401;29;20060;-69
2023/03/21 05:33:30;;;;;;;25.15;9.20;;;;;;;-145.50;100.00;65435.88;4901417;29;20063;-69
2023/03/21 05:35:57;;;;;;;18.23;9.05;;;;;;;-145.50;100.00;65435.88;4907098;29;20394;-69
2023/03/21 05:38:24;;;;;;;19.27;9.90;;;;;;;-145.50;100.00;65435.88;4899558;29;20051;-69
2023/03/21 05:40:53;;;;;;;21.63;9.93;;;;;;;-145.50;100.00;65435.88;4910958;29;20083;-69
2023/03/21 05:43:19;;;;;;;16.30;9.80;;;;;;;-145.50;100.00;65435.88;4906359;29;20413;-69
2023/03/21 05:45:47;;;;;;;19.83;9.82;;;;;;;-145.50;100.00;65435.88;4911720;29;20083;-69
2023/03/21 05:48:14;;;;;;;20.45;10.05;;;;;;;-145.50;100.00;65435.88;4905840;29;20135;-69
2023/03/21 05:50:41;;;;;;;14.70;8.02;;;;;;;-145.50;100.00;65435.88;4901178;29;20055;-69
2023/03/21 05:53:07;;;;;;;20.45;9.57;;;;;;;-145.50;100.00;65435.88;4909054;29;20091;-69
2023/03/21 05:55:34;;;;;;;16.65;9.10;;;;;;;-145.50;100.00;65435.88;4905435;29;20060;-69
2023/03/21 05:58:01;;;;;;;23.33;9.70;;;;;;;-145.50;100.00;65435.88;4910805;29;20051;-69
2023/03/21 06:00:27;;;;;;;17.88;9.85;;;;;;;-145.50;100.00;65435.88;4903359;29;20052;-68
2023/03/21 06:02:56;;;;;;;16.63;8.60;;;;;;;-145.50;100.00;65435.88;4904620;29;20119;-69
2023/03/21 06:05:22;;;;;;;19.02;8.77;;;;;;;-145.50;100.00;65435.88;4905180;29;20063;-69
2023/03/21 06:07:49;;;;;;;16.02;9.02;;;;;;;-145.50;100.00;65435.88;4896851;29;20056;-68
2023/03/21 06:10:15;;;;;;;20.27;9.07;;;;;;;-145.50;100.00;65435.88;4910492;29;20079;-68
2023/03/21 06:12:42;;;;;;;20.85;9.13;;;;;;;-145.50;100.00;65435.88;4904558;29;20417;-69
2023/03/21 06:15:08;;;;;;;16.25;8.90;;;;;;;-145.50;100.00;65435.88;4908248;29;20070;-68
2023/03/21 06:17:35;;;;;;;15.98;8.43;;;;;;;-145.50;100.00;65435.88;4900567;29;20446;-68
2023/03/21 06:20:05;;;;;;;18.55;8.95;;;;;;;-145.50;100.00;65435.88;4910332;29;20100;-68
2023/03/21 06:22:33;;;;;;;18.23;8.70;;;;;;;-145.50;100.00;65435.88;4907702;29;20529;-68
2023/03/21 06:25:00;;;;;;;16.00;8.80;;;;;;;-145.50;100.00;65435.88;4903317;29;20071;-69
2023/03/21 06:27:27;;;;;;;18.20;8.50;;;;;;;-145.50;100.00;65435.88;4910967;29;20459;-68
2023/03/21 06:29:53;;;;;;;17.35;8.95;;;;;;;-145.50;100.00;65435.88;4899626;29;20055;-69
2023/03/21 06:32:20;;;;;;;20.45;9.05;;;;;;;-145.50;100.00;65435.88;4906688;29;20052;-68
2023/03/21 06:34:46;;;;;;;17.40;8.00;;;;;;;-145.50;100.00;65435.88;4904495;29;20060;-68
2023/03/21 06:37:12;;;;;;;17.20;8.57;;;;;;;-145.50;100.00;65435.88;4907342;29;20076;-68
2023/03/21 06:39:39;;;;;;;19.77;8.90;;;;;;;-145.50;100.00;65435.88;4907781;29;20052;-68
2023/03/21 06:42:06;;;;;;;13.77;8.63;;;;;;;-145.50;100.00;65435.88;4903266;29;20602;-69
2023/03/21 06:44:32;;;;;;;17.35;8.90;;;;;;;-145.50;100.00;65435.88;4920570;29;20059;-68
2023/03/21 06:46:59;;;;;;;15.07;7.10;;;;;;;-145.50;100.00;65435.88;4898852;29;20095;-69
2023/03/21 06:49:26;;;;;;;13.93;7.75;;;;;;;-145.50;100.00;65435.88;4910815;29;20060;-68
2023/03/21 06:51:55;;;;;;;12.55;7.10;;;;;;;-145.50;100.00;65435.88;4896062;29;20716;-69
2023/03/21 06:54:22;;;;;;;13.70;8.10;;;;;;;-145.50;100.00;65435.88;4910393;29;20119;-69
2023/03/21 06:56:48;;;;;;;12.02;6.75;;;;;;;-145.50;100.00;65435.88;4909425;29;20629;-69
2023/03/21 06:59:15;;;;;;;18.27;8.02;;;;;;;-145.50;100.00;65435.88;4897561;29;20052;-69
2023/03/21 07:01:42;;;;;;;17.00;7.38;;;;;;;-145.50;100.00;65435.88;4903250;29;20044;-69
2023/03/21 07:04:09;;;;;;;15.25;7.10;;;;;;;-145.50;100.00;65435.88;4903977;29;20127;-69
2023/03/21 07:06:36;;;;;;;15.13;7.55;;;;;;;-145.50;100.00;65435.88;4914994;29;20063;-69
2023/03/21 07:09:04;;;;;;;17.48;7.50;;;;;;;-145.50;100.00;65435.88;4903615;29;20060;-69
2023/03/21 07:11:31;;;;;;;19.35;8.48;;;;;;;-145.50;100.00;65435.88;4905864;29;20071;-67
2023/03/21 07:13:58;;;;;;;14.75;7.82;;;;;;;-145.50;100.00;65435.88;4905800;29;20472;-68
2023/03/21 07:16:24;;;;;;;13.38;7.22;;;;;;;-145.50;100.00;65435.88;4904322;29;20059;-67
2023/03/21 07:18:51;;;;;;;15.50;7.25;;;;;;;-145.50;100.00;65435.88;4909657;29;20058;-68
2023/03/21 07:21:17;;;;;;;19.52;7.22;;;;;;;-145.50;100.00;65435.88;4917788;29;20516;-67
2023/03/21 07:23:44;;;;;;;16.75;7.45;;;;;;;-145.50;100.00;65435.88;4909771;29;20064;-69
2023/03/21 07:26:10;;;;;;;16.80;7.55;;;;;;;-145.50;100.00;65435.88;4904403;29;20127;-67
2023/03/21 07:28:37;;;;;;;13.93;7.03;;;;;;;-145.50;100.00;65435.88;4909028;29;20505;-67
2023/03/21 07:31:06;;;;;;;17.55;7.93;;;;;;;-145.50;100.00;65435.88;4913818;29;20108;-66
2023/03/21 07:33:32;;;;;;;18.33;7.00;;;;;;;-145.50;100.00;65435.88;4907552;29;20539;-67
2023/03/21 07:36:00;;;;;;;14.60;7.50;;;;;;;-145.50;100.00;65435.88;4913147;29;20056;-69
2023/03/21 07:38:29;;;;;;;20.52;7.53;;;;;;;-145.50;100.00;65435.88;4906827;29;20465;-67
2023/03/21 07:40:58;;;;;;;13.93;6.88;;;;;;;-145.50;100.00;65435.88;4908462;29;20402;-67
2023/03/21 07:43:24;;;;;;;;;;;;;;;-145.50;100.00;65435.88;4907589;29;20446;-68
2023/03/21 07:45:55;;;;;;;16.90;7.47;;;;;;;-145.50;100.00;65435.88;4907807;29;19923;-68
2023/03/21 07:48:22;;;;;;;14.68;7.25;;;;;;;-145.50;100.00;65435.88;4906989;29;20116;-69
2023/03/21 07:50:49;;;;;;;17.10;7.85;;;;;;;-145.50;100.00;65435.88;4909617;29;20052;-68
2023/03/21 07:53:16;;;;;;;15.95;7.07;;;;;;;-145.50;100.00;65435.88;4908816;29;20052;-69
2023/03/21 07:55:42;;;;;;;19.20;8.18;;;;;;;-145.50;100.00;65435.88;4902987;29;20478;-68
2023/03/21 07:58:09;;;;;;;15.98;7.15;;;;;;;-145.50;100.00;65435.88;4913657;29;20044;-70
2023/03/21 08:00:35;;;;;;;18.40;7.25;;;;;;;-145.50;100.00;65435.88;4907816;29;20516;-68
2023/03/21 08:03:02;;;;;;;15.50;7.95;;;;;;;-145.50;100.00;65435.88;4914242;29;20056;-69
2023/03/21 08:05:39;;;;;;;14.35;7.60;;;;;;;-145.50;100.00;65435.88;4909196;29;20084;-70
2023/03/21 08:08:06;;;;;;;15.10;6.77;;;;;;;-145.50;100.00;65435.88;4905925;29;20052;-69
2023/03/21 08:10:33;;;;;;;15.75;7.30;;;;;;;-145.50;100.00;65435.88;4910400;29;20489;-69
2023/03/21 08:13:00;;;;;;;17.00;7.47;;;;;;;-145.50;100.00;65435.88;4906365;29;20478;-68
2023/03/21 08:15:26;;;;;;;16.73;6.95;;;;;;;-145.50;100.00;65435.88;4927438;29;20059;-69
2023/03/21 08:17:53;;;;;;;24.40;7.13;;;;;;;-145.50;100.00;65435.88;4906303;29;20501;-69
2023/03/21 08:20:22;;;;;;;14.18;6.60;;;;;;;-145.50;100.00;65435.88;4906616;29;20135;-69
2023/03/21 08:22:49;;;;;;;18.42;6.85;;;;;;;-145.50;100.00;65435.88;4897964;29;20529;-70
2023/03/21 08:25:18;;;;;;;16.67;6.53;;;;;;;-145.50;100.00;65435.88;4912179;29;20059;-69
2023/03/21 08:27:45;;;;;;;15.85;7.47;;;;;;;-145.50;100.00;65435.88;4913057;29;20048;-69
2023/03/21 08:30:15;;;;;;;13.82;6.03;;;;;;;-145.50;100.00;65435.88;4905966;29;20059;-69
2023/03/21 08:32:42;;;;;;;14.85;6.88;;;;;;;-145.50;100.00;65435.88;4913419;29;20074;-69
2023/03/21 08:35:10;;;;;;;13.55;6.28;;;;;;;-145.50;100.00;65435.88;4902615;29;20106;-69
2023/03/21 08:37:39;;;;;;;20.42;7.00;;;;;;;-145.50;100.00;65435.88;4908133;29;20050;-69
2023/03/21 08:40:10;;;;;;;17.30;6.45;;;;;;;-145.50;100.00;65435.88;4907455;29;20048;-68
2023/03/21 08:42:38;;;;;;;15.65;6.88;;;;;;;-145.50;100.00;65435.88;4905395;29;20072;-69
2023/03/21 08:45:06;;;;;;;10.33;6.30;;;;;;;-145.50;100.00;65435.88;4913354;29;20056;-69
2023/03/21 08:47:32;;;;;;;12.57;5.72;;;;;;;-145.50;100.00;65435.88;4903430;29;20467;-68
2023/03/21 08:49:59;;;;;;;12.23;6.40;;;;;;;-145.50;100.00;65435.88;4906303;29;20469;-69
2023/03/21 08:52:26;;;;;;;14.25;6.15;;;;;;;-145.50;100.00;65435.88;4904112;29;20056;-68
2023/03/21 08:54:54;;;;;;;17.77;6.53;;;;;;;-145.50;100.00;65435.88;4912207;29;20549;-68
2023/03/21 08:57:20;;;;;;;19.23;7.18;;;;;;;-145.50;100.00;65435.88;4905977;29;20080;-69
2023/03/21 08:59:47;;;;;;;9.93;5.82;;;;;;;-145.50;100.00;65435.88;4912566;29;20051;-68
2023/03/21 09:02:15;;;;;;;14.90;6.57;;;;;;;-145.50;100.00;65435.88;4907286;29;20663;-69
2023/03/21 09:04:43;;;;;;;13.45;6.75;;;;;;;-145.50;100.00;65435.88;4902110;29;20064;-69
2023/03/21 09:07:13;;;;;;;12.43;6.10;;;;;;;-145.50;100.00;65435.88;4912933;29;20485;-69
2023/03/21 09:09:40;;;;;;;11.80;6.57;;;;;;;-145.50;100.00;65435.88;4906355;29;20425;-69
2023/03/21 09:12:07;;;;;;;14.77;6.55;;;;;;;-145.50;100.00;65435.88;4912641;29;20131;-69
2023/03/21 09:14:34;;;;;;;15.23;6.22;;;;;;;-145.50;100.00;65435.88;4907754;29;20046;-68
2023/03/21 09:17:00;;;;;;;14.65;7.22;;;;;;;-145.50;100.00;65435.88;4906735;29;20682;-68
2023/03/21 09:19:29;;;;;;;18.80;6.93;;;;;;;-145.50;100.00;65435.88;4909553;29;20143;-68
2023/03/21 09:21:56;;;;;;;15.93;7.55;;;;;;;-145.50;100.00;65435.88;4905596;29;20501;-69
2023/03/21 09:24:23;;;;;;;11.63;6.68;;;;;;;-145.50;100.00;65435.88;4911114;29;20079;-69
2023/03/21 09:26:50;;;;;;;11.02;6.78;;;;;;;-145.50;100.00;65435.88;4904944;29;20051;-69
2023/03/21 09:29:19;;;;;;;17.65;7.45;;;;;;;-145.50;100.00;65435.88;4908539;29;20055;-68
2023/03/21 09:31:46;;;;;;;18.08;7.43;;;;;;;-145.50;100.00;65435.88;4898384;29;20131;-69
2023/03/21 09:34:14;;;;;;;16.13;6.53;;;;;;;-145.50;100.00;65435.88;4912193;29;20060;-69
2023/03/21 09:36:43;;;;;;;;;;;;;;;-145.50;100.00;65435.88;4909486;29;20064;-69
2023/03/21 09:39:10;;;;;;;13.35;6.03;;;;;;;-145.50;100.00;65435.88;4904121;29;19923;-69
2023/03/21 09:42:05;;;;;;;12.45;6.43;;;;;;;-145.50;100.00;65435.88;4910630;29;20462;-69
2023/03/21 09:45:00;;;;;;;14.63;6.70;;;;;;;-145.50;100.00;65435.88;4899934;29;20056;-69
2023/03/21 09:47:33;;;;;;;13.32;6.55;;;;;;;-145.50;100.00;65435.88;4908468;29;20048;-69
2023/03/21 09:50:11;;;;;;;14.23;7.03;;;;;;;-145.50;100.00;65435.88;4906566;29;20146;-69
2023/03/21 09:53:15;;;;;;;12.88;6.03;;;;;;;-145.50;100.00;65435.88;4911654;29;20048;-69
2023/03/21 09:55:43;;;;;;;15.68;6.57;;;;;;;-145.50;100.00;65435.88;4901494;29;20110;-70
2023/03/21 09:58:32;;;;;;;13.10;7.10;;;;;;;-145.50;100.00;65435.88;4907866;29;20055;-71
2023/03/21 10:01:09;;;;;;;14.35;6.50;;;;;;;-145.50;100.00;65435.88;4903521;29;20070;-70
2023/03/21 10:03:36;;;;;;;13.48;5.63;;;;;;;-145.50;100.00;65435.88;4910281;29;20437;-72
2023/03/21 10:06:11;;;;;;;11.82;6.22;;;;;;;-145.50;100.00;65435.88;4907390;29;20047;-70
2023/03/21 10:08:43;;;;;;;12.65;6.22;;;;;;;-145.50;100.00;65435.88;4908917;29;20557;-70
2023/03/21 10:11:22;;;;;;;11.73;5.80;;;;;;;-145.50;100.00;65435.88;4907142;29;20078;-70
2023/03/21 10:13:58;;;;;;;11.30;6.45;;;;;;;-145.50;100.00;65435.88;4900103;29;20059;-71
2023/03/21 10:16:32;;;;;;;12.35;5.43;;;;;;;-145.50;100.00;65435.88;4912297;29;20060;-69
2023/03/21 10:19:09;;;;;;;12.98;5.80;;;;;;;-145.50;100.00;65435.88;4903163;29;20056;-68
2023/03/21 10:21:42;;;;;;;9.40;5.20;;;;;;;-145.50;100.00;65435.88;4905192;29;20064;-70
2023/03/21 10:24:28;;;;;;;11.80;6.55;;;;;;;-145.50;100.00;65435.88;4891257;29;20669;-69
2023/03/21 10:26:55;;;;;;;15.60;6.43;;;;;;;-145.50;100.00;65435.88;4906551;29;20733;-68
2023/03/21 10:29:28;;;;;;;12.15;6.80;;;;;;;-145.50;100.00;65435.88;4902982;29;20410;-69
2023/03/21 10:31:55;;;;;;;11.43;6.28;;;;;;;-145.50;100.00;65435.88;4906880;29;20488;-69
2023/03/21 10:34:31;;;;;;;9.57;5.47;;;;;;;-145.50;100.00;65435.88;4926011;29;20094;-70
2023/03/21 10:37:02;;;;;;;14.50;5.95;;;;;;;-145.50;100.00;65435.88;4908178;29;20048;-68
2023/03/21 10:39:41;;;;;;;8.68;5.32;;;;;;;-145.50;100.00;65435.88;4905153;29;20406;-69
2023/03/21 10:42:20;;;;;;;16.83;7.05;;;;;;;-145.50;100.00;65435.88;4899196;29;20055;-69
2023/03/21 10:44:49;;;;;;;11.93;6.13;;;;;;;-145.50;100.00;65435.88;4909179;29;20329;-69
2023/03/21 10:47:21;;;;;;;11.32;5.85;;;;;;;-145.50;100.00;65435.88;4904250;29;20056;-70
2023/03/21 10:49:48;;;;;;;11.43;5.28;;;;;;;-145.50;100.00;65435.88;4910343;29;20064;-69
2023/03/21 10:52:34;;;;;;;13.15;5.60;;;;;;;-145.50;100.00;65435.88;4900272;29;20068;-70
2023/03/21 10:55:16;;;;;;;12.98;6.13;;;;;;;-145.50;100.00;65435.88;4909468;29;20056;-70
2023/03/21 10:57:45;;;;;;;13.98;6.10;;;;;;;-145.50;100.00;65435.88;4902218;29;20040;-70
2023/03/21 11:00:26;;;;;;;11.40;5.30;;;;;;;-145.50;100.00;65435.88;4908297;29;20062;-70
2023/03/21 11:02:53;;;;;;;9.48;5.70;;;;;;;-145.50;100.00;65435.88;4910267;29;20095;-69
2023/03/21 11:05:37;;;;;;;12.65;5.90;;;;;;;-145.50;100.00;65435.88;4903868;29;20108;-69
2023/03/21 11:08:10;;;;;;;11.18;6.05;;;;;;;-145.50;100.00;65435.88;4902350;29;20135;-69
2023/03/21 11:10:50;;;;;;;11.32;5.45;;;;;;;-145.50;100.00;65435.88;4901554;29;20557;-69
2023/03/21 11:13:22;;;;;;;16.77;5.68;;;;;;;-145.50;100.00;65435.88;4911109;29;20112;-70
2023/03/21 11:15:57;;;;;;;15.35;6.00;;;;;;;-145.50;100.00;65435.88;4904044;29;20056;-69
2023/03/21 11:18:26;;;;;;;11.43;6.22;;;;;;;-145.50;100.00;65435.88;4904292;29;20079;-70